Time;durP1;ratioP1;P1;durP2;ratioP2;P2;SDS_P1;SDS_P2;PMS_P1;PMS_P2;Temp;Humidity;BMP_temperature;BMP_pressure;BME280_temperature;BME280_humidity;BME280_pressure;Samples;Min_cycle;Max_cycle;Signal;HPM_P1;HPM_P2
2022/09/12 00:00:28;;;;;;;6.03;4.03;;;;;;;;;;5034354;28;20030;-67
2022/09/12 00:02:54;;;;;;;6.45;4.55;;;;;;;;;;5034157;28;20379;-67
2022/09/12 00:05:21;;;;;;;5.57;4.07;;;;;;;;;;5034186;28;20032;-67
2022/09/12 00:07:47;;;;;;;6.53;4.70;;;;;;;;;;5034351;28;20367;-67
2022/09/12 00:10:13;;;;;;;7.43;4.65;;;;;;;;;;5033815;28;20033;-68
2022/09/12 00:12:38;;;;;;;6.40;4.55;;;;;;;;;;5034015;28;20048;-67
2022/09/12 00:15:05;;;;;;;6.97;4.55;;;;;;;;;;5033929;28;20024;-68
2022/09/12 00:17:34;;;;;;;7.78;4.97;;;;;;;;;;5049331;28;20036;-67
2022/09/12 00:19:59;;;;;;;5.78;4.60;;;;;;;;;;5033850;28;20036;-67
2022/09/12 00:22:25;;;;;;;8.00;5.00;;;;;;;;;;5033609;28;20025;-67
2022/09/12 00:24:50;;;;;;;7.15;5.20;;;;;;;;;;5033721;28;20105;-67
2022/09/12 00:27:16;;;;;;;7.97;4.88;;;;;;;;;;5033598;28;20049;-67
2022/09/12 00:29:42;;;;;;;7.43;5.40;;;;;;;;;;5033693;28;20034;-67
2022/09/12 00:32:07;;;;;;;6.88;5.07;;;;;;;;;;5033346;28;20033;-67
2022/09/12 00:34:33;;;;;;;7.82;5.10;;;;;;;;;;5033672;28;20025;-67
2022/09/12 00:36:58;;;;;;;8.23;4.60;;;;;;;;;;5029038;28;20021;-67
2022/09/12 00:39:24;;;;;;;8.20;5.50;;;;;;;;;;5028626;28;20084;-68
2022/09/12 00:41:49;;;;;;;7.63;5.50;;;;;;;;;;5032268;28;20033;-67
2022/09/12 00:44:15;;;;;;;7.95;4.47;;;;;;;;;;5046279;28;20116;-67
2022/09/12 00:46:47;;;;;;;7.25;5.03;;;;;;;;;;5032737;28;20033;-66
2022/09/12 00:49:31;;;;;;;5.78;4.50;;;;;;;;;;5033847;28;20041;-68
2022/09/12 00:52:19;;;;;;;8.13;4.63;;;;;;;;;;5020562;28;20052;-67
2022/09/12 00:55:05;;;;;;;6.25;4.63;;;;;;;;;;5020797;28;20030;-70
2022/09/12 00:57:37;;;;;;;7.60;4.50;;;;;;;;;;5021496;28;20021;-67
2022/09/12 01:00:14;;;;;;;7.82;4.75;;;;;;;;;;5022835;28;20084;-67
2022/09/12 01:02:43;;;;;;;7.65;4.88;;;;;;;;;;5023011;28;20028;-67
2022/09/12 01:05:09;;;;;;;8.60;4.38;;;;;;;;;;5021285;28;20454;-67
2022/09/12 01:07:39;;;;;;;8.75;5.00;;;;;;;;;;5020483;28;20383;-68
2022/09/12 01:10:06;;;;;;;8.20;4.90;;;;;;;;;;5023228;28;20025;-68
2022/09/12 01:12:33;;;;;;;5.47;4.05;;;;;;;;;;5021473;28;20365;-67
2022/09/12 01:14:59;;;;;;;7.55;4.90;;;;;;;;;;5020357;28;20022;-68
2022/09/12 01:17:39;;;;;;;7.40;5.18;;;;;;;;;;5022672;28;20368;-68
2022/09/12 01:20:31;;;;;;;10.33;4.80;;;;;;;;;;5025109;28;20030;-68
2022/09/12 01:23:25;;;;;;;6.72;4.63;;;;;;;;;;5020027;28;20340;-68
2022/09/12 01:26:08;;;;;;;10.75;5.00;;;;;;;;;;5017552;28;20531;-67
2022/09/12 01:28:39;;;;;;;10.38;5.53;;;;;;;;;;5032646;28;20026;-67
2022/09/12 01:31:12;;;;;;;8.30;5.47;;;;;;;;;;5049294;28;20037;-68
2022/09/12 01:33:37;;;;;;;8.68;5.50;;;;;;;;;;5050960;28;20035;-67
2022/09/12 01:36:34;;;;;;;7.95;5.38;;;;;;;;;;5052350;28;20389;-67
2022/09/12 01:39:02;;;;;;;7.32;5.35;;;;;;;;;;5038660;28;20449;-67
2022/09/12 01:41:37;;;;;;;7.78;5.57;;;;;;;;;;5047054;28;20062;-68
2022/09/12 01:44:47;;;;;;;6.90;5.57;;;;;;;;;;5051944;28;20022;-68
2022/09/12 01:47:25;;;;;;;6.15;5.32;;;;;;;;;;5052128;28;20025;-68
2022/09/12 01:50:13;;;;;;;7.93;5.68;;;;;;;;;;5051927;28;20498;-68
2022/09/12 01:53:20;;;;;;;11.05;6.15;;;;;;;;;;5012626;28;20029;-69
2022/09/12 01:55:54;;;;;;;7.60;5.75;;;;;;;;;;4933028;29;20027;-67
2022/09/12 01:58:28;;;;;;;7.63;5.88;;;;;;;;;;4949092;28;20137;-67
2022/09/12 02:01:05;;;;;;;12.15;5.90;;;;;;;;;;4952040;29;20082;-67
2022/09/12 02:03:40;;;;;;;9.55;6.55;;;;;;;;;;4951254;28;20110;-68
2022/09/12 02:06:11;;;;;;;8.50;6.15;;;;;;;;;;4951525;28;20110;-67
2022/09/12 02:09:03;;;;;;;11.63;5.82;;;;;;;;;;4971353;28;20034;-67
2022/09/12 02:11:33;;;;;;;9.52;7.22;;;;;;;;;;4942075;28;20031;-67
2022/09/12 02:14:07;;;;;;;10.70;6.05;;;;;;;;;;4951928;28;20039;-67
2022/09/12 02:16:46;;;;;;;9.20;6.50;;;;;;;;;;4950550;29;20118;-67
2022/09/12 02:19:16;;;;;;;9.20;7.03;;;;;;;;;;4948855;28;20051;-67
2022/09/12 02:21:58;;;;;;;11.93;8.23;;;;;;;;;;4942475;29;20094;-68
2022/09/12 02:24:30;;;;;;;13.63;8.38;;;;;;;;;;4942702;28;20040;-68
2022/09/12 02:27:02;;;;;;;13.27;8.88;;;;;;;;;;4997466;28;20034;-69
2022/09/12 02:29:27;;;;;;;12.73;9.18;;;;;;;;;;5024674;28;20509;-67
2022/09/12 02:32:38;;;;;;;11.65;8.68;;;;;;;;;;5024123;28;20033;-67
2022/09/12 02:35:17;;;;;;;13.43;10.18;;;;;;;;;;5027479;28;20394;-68
2022/09/12 02:37:42;;;;;;;14.90;9.05;;;;;;;;;;5021939;28;20120;-67
2022/09/12 02:40:08;;;;;;;11.63;8.30;;;;;;;;;;5021338;28;20108;-67
2022/09/12 02:42:35;;;;;;;11.65;7.80;;;;;;;;;;5022737;28;20433;-68
2022/09/12 02:45:02;;;;;;;12.50;8.40;;;;;;;;;;5021558;28;20048;-67
2022/09/12 02:47:37;;;;;;;13.85;9.45;;;;;;;;;;5019799;28;20053;-67
2022/09/12 02:50:04;;;;;;;12.55;9.00;;;;;;;;;;5021194;28;20083;-67
2022/09/12 02:52:30;;;;;;;14.65;8.90;;;;;;;;;;5020383;28;20054;-67
2022/09/12 02:54:57;;;;;;;13.38;7.68;;;;;;;;;;5021222;28;20101;-68
2022/09/12 02:57:22;;;;;;;10.93;7.40;;;;;;;;;;5025015;28;20506;-67
2022/09/12 02:59:50;;;;;;;12.50;8.43;;;;;;;;;;5023421;28;20084;-67
2022/09/12 03:02:42;;;;;;;14.00;10.07;;;;;;;;;;5022595;28;20478;-67
2022/09/12 03:05:15;;;;;;;12.52;7.22;;;;;;;;;;5023643;28;20089;-68
2022/09/12 03:07:59;;;;;;;10.30;7.32;;;;;;;;;;5022924;28;20395;-67
2022/09/12 03:10:43;;;;;;;8.98;6.90;;;;;;;;;;5021573;28;20453;-67
2022/09/12 03:13:30;;;;;;;9.48;7.13;;;;;;;;;;5031998;28;20022;-67
2022/09/12 03:16:41;;;;;;;9.52;7.15;;;;;;;;;;5034254;28;20021;-67
2022/09/12 03:19:24;;;;;;;;;;;;;;;;;;4992677;28;20054;-67
2022/09/12 03:22:17;;;;;;;10.52;7.05;;;;;;;;;;4992553;28;19913;-67
2022/09/12 03:24:47;;;;;;;9.57;6.45;;;;;;;;;;4991911;28;20084;-67
2022/09/12 03:27:18;;;;;;;11.18;6.53;;;;;;;;;;4979083;28;20114;-68
2022/09/12 03:29:45;;;;;;;;;;;;;;;;;;4980157;28;20065;-67
2022/09/12 03:32:10;;;;;;;10.60;7.10;;;;;;;;;;4972496;28;19918;-67
2022/09/12 03:34:36;;;;;;;10.07;6.38;;;;;;;;;;4972823;28;20449;-66
2022/09/12 03:37:01;;;;;;;9.02;6.82;;;;;;;;;;4972699;28;20043;-67
2022/09/12 03:39:27;;;;;;;9.32;6.70;;;;;;;;;;4969029;28;20043;-67
2022/09/12 03:41:53;;;;;;;9.20;7.00;;;;;;;;;;4972352;28;20031;-67
2022/09/12 03:44:19;;;;;;;10.10;7.70;;;;;;;;;;4972750;28;20041;-69
2022/09/12 03:46:45;;;;;;;11.55;7.40;;;;;;;;;;4972330;28;20031;-68
2022/09/12 03:49:11;;;;;;;12.15;7.13;;;;;;;;;;4972366;28;20646;-67
2022/09/12 03:51:37;;;;;;;11.93;7.20;;;;;;;;;;4972538;28;20035;-67
2022/09/12 03:54:04;;;;;;;11.35;7.97;;;;;;;;;;4972472;28;20481;-67
2022/09/12 03:56:29;;;;;;;8.48;6.40;;;;;;;;;;5017880;28;20050;-68
2022/09/12 03:58:54;;;;;;;9.85;7.15;;;;;;;;;;5033076;28;20041;-67
2022/09/12 04:01:20;;;;;;;10.23;6.78;;;;;;;;;;5033121;28;20557;-67
2022/09/12 04:03:48;;;;;;;10.55;6.78;;;;;;;;;;5033232;28;20030;-67
2022/09/12 04:06:16;;;;;;;11.18;6.82;;;;;;;;;;5032723;28;20021;-67
2022/09/12 04:08:43;;;;;;;10.48;6.07;;;;;;;;;;5033050;28;20029;-67
2022/09/12 04:11:12;;;;;;;12.25;6.90;;;;;;;;;;5032996;28;20083;-67
2022/09/12 04:13:39;;;;;;;11.45;7.70;;;;;;;;;;5033130;28;20124;-66
2022/09/12 04:16:06;;;;;;;13.15;8.45;;;;;;;;;;5032788;28;20025;-67
2022/09/12 04:18:32;;;;;;;11.27;8.10;;;;;;;;;;5032864;28;20040;-67
2022/09/12 04:20:58;;;;;;;11.63;7.88;;;;;;;;;;5032909;28;20036;-67
2022/09/12 04:23:23;;;;;;;11.38;8.02;;;;;;;;;;5032857;28;20029;-67
2022/09/12 04:25:57;;;;;;;11.38;8.35;;;;;;;;;;5032832;28;20026;-67
2022/09/12 04:28:23;;;;;;;11.57;9.00;;;;;;;;;;5032677;28;20040;-68
2022/09/12 04:30:49;;;;;;;12.73;9.30;;;;;;;;;;5032572;28;20589;-67
2022/09/12 04:33:15;;;;;;;14.55;8.93;;;;;;;;;;5032565;28;20089;-68
2022/09/12 04:35:41;;;;;;;14.43;9.50;;;;;;;;;;5032789;28;20091;-69
2022/09/12 04:38:08;;;;;;;15.05;9.30;;;;;;;;;;5032341;28;20052;-67
2022/09/12 04:40:33;;;;;;;21.38;10.02;;;;;;;;;;5032588;28;20039;-67
2022/09/12 04:42:59;;;;;;;20.88;10.52;;;;;;;;;;5032599;28;20100;-67
2022/09/12 04:45:25;;;;;;;25.40;10.02;;;;;;;;;;5032333;28;20101;-67
2022/09/12 04:47:50;;;;;;;47.67;10.75;;;;;;;;;;5032454;28;20037;-67
2022/09/12 04:50:17;;;;;;;43.10;10.38;;;;;;;;;;5032427;28;20037;-67
2022/09/12 04:52:42;;;;;;;31.10;10.07;;;;;;;;;;5032053;28;20029;-65
2022/09/12 04:55:08;;;;;;;30.15;10.23;;;;;;;;;;5032235;28;20360;-67
2022/09/12 04:57:34;;;;;;;22.33;9.73;;;;;;;;;;5032451;28;20029;-66
2022/09/12 05:00:00;;;;;;;21.58;10.35;;;;;;;;;;5031853;28;20037;-65
2022/09/12 05:02:26;;;;;;;21.92;9.25;;;;;;;;;;5032099;28;20017;-66
2022/09/12 05:04:53;;;;;;;41.53;9.90;;;;;;;;;;5032007;28;20039;-65
2022/09/12 05:07:18;;;;;;;21.35;9.60;;;;;;;;;;5030638;28;20034;-67
2022/09/12 05:09:44;;;;;;;20.80;8.70;;;;;;;;;;5031999;28;20032;-66
2022/09/12 05:12:10;;;;;;;23.08;7.90;;;;;;;;;;5031908;28;20021;-66
2022/09/12 05:14:36;;;;;;;16.77;8.90;;;;;;;;;;5031689;28;20431;-67
2022/09/12 05:17:04;;;;;;;19.40;8.75;;;;;;;;;;5031025;28;20030;-66
2022/09/12 05:19:30;;;;;;;14.55;8.25;;;;;;;;;;5031581;28;20418;-66
2022/09/12 05:21:57;;;;;;;12.00;8.50;;;;;;;;;;5031924;28;20033;-66
2022/09/12 05:24:23;;;;;;;17.00;8.23;;;;;;;;;;5031770;28;20403;-66
2022/09/12 05:26:49;;;;;;;15.15;8.55;;;;;;;;;;5031857;28;20071;-66
2022/09/12 05:29:14;;;;;;;37.92;11.10;;;;;;;;;;5031344;28;20029;-66
2022/09/12 05:31:40;;;;;;;22.55;10.13;;;;;;;;;;5031571;28;20029;-67
2022/09/12 05:34:07;;;;;;;31.88;9.02;;;;;;;;;;5031461;28;20025;-66
2022/09/12 05:36:33;;;;;;;18.33;10.70;;;;;;;;;;5031504;28;20382;-67
2022/09/12 05:38:59;;;;;;;20.75;9.90;;;;;;;;;;5031216;28;20112;-66
2022/09/12 05:41:29;;;;;;;16.48;9.60;;;;;;;;;;5031331;28;20475;-66
2022/09/12 05:44:06;;;;;;;15.55;8.20;;;;;;;;;;5031501;28;20024;-67
2022/09/12 05:46:36;;;;;;;11.43;8.18;;;;;;;;;;5031330;28;20048;-67
2022/09/12 05:49:04;;;;;;;15.13;9.50;;;;;;;;;;5031286;28;20025;-68
2022/09/12 05:51:36;;;;;;;17.90;8.65;;;;;;;;;;5031289;28;20029;-67
2022/09/12 05:54:04;;;;;;;16.92;9.05;;;;;;;;;;5031553;28;20092;-67
2022/09/12 05:56:32;;;;;;;16.77;8.95;;;;;;;;;;5031158;28;20044;-67
2022/09/12 05:59:03;;;;;;;11.35;8.35;;;;;;;;;;5031392;28;20041;-66
2022/09/12 06:01:30;;;;;;;10.23;7.50;;;;;;;;;;5031440;28;20030;-66
2022/09/12 06:03:59;;;;;;;10.02;7.45;;;;;;;;;;5031359;28;20100;-66
2022/09/12 06:06:26;;;;;;;10.27;7.82;;;;;;;;;;5031158;28;20044;-67
2022/09/12 06:08:55;;;;;;;10.75;7.57;;;;;;;;;;5031216;28;20026;-66
2022/09/12 06:11:23;;;;;;;11.55;7.57;;;;;;;;;;5030953;28;20498;-66
2022/09/12 06:13:49;;;;;;;10.10;7.40;;;;;;;;;;5031207;28;20463;-67
2022/09/12 06:16:20;;;;;;;9.23;7.00;;;;;;;;;;5031076;28;20047;-66
2022/09/12 06:18:52;;;;;;;11.90;7.15;;;;;;;;;;5031160;28;20029;-66
2022/09/12 06:21:18;;;;;;;11.10;7.15;;;;;;;;;;5031193;28;20117;-67
2022/09/12 06:23:47;;;;;;;11.73;7.80;;;;;;;;;;5030803;28;20021;-67
2022/09/12 06:26:15;;;;;;;12.90;7.65;;;;;;;;;;5030639;28;20028;-66
2022/09/12 06:28:43;;;;;;;10.95;7.97;;;;;;;;;;5032215;28;20021;-66
2022/09/12 06:31:24;;;;;;;10.02;7.28;;;;;;;;;;5034968;28;20382;-67
2022/09/12 06:33:51;;;;;;;10.70;7.45;;;;;;;;;;5035020;28;20130;-66
2022/09/12 06:36:20;;;;;;;14.82;7.57;;;;;;;;;;5034598;28;20113;-66
2022/09/12 06:38:46;;;;;;;13.10;6.80;;;;;;;;;;5034701;28;20499;-67
2022/09/12 06:41:12;;;;;;;14.15;7.70;;;;;;;;;;5034630;28;20014;-66
2022/09/12 06:43:39;;;;;;;10.88;7.38;;;;;;;;;;5034823;28;20036;-66
2022/09/12 06:46:06;;;;;;;8.85;6.40;;;;;;;;;;5033558;28;20018;-68
2022/09/12 06:48:32;;;;;;;11.07;7.00;;;;;;;;;;5034312;28;20485;-66
2022/09/12 06:51:08;;;;;;;11.88;7.10;;;;;;;;;;5034553;28;20068;-66
2022/09/12 06:53:38;;;;;;;6.90;5.80;;;;;;;;;;5034549;28;20029;-66
2022/09/12 06:56:25;;;;;;;11.05;5.68;;;;;;;;;;5034390;28;20052;-66
2022/09/12 06:58:51;;;;;;;9.10;6.05;;;;;;;;;;5034184;28;20123;-66
2022/09/12 07:01:23;;;;;;;8.57;6.10;;;;;;;;;;5028549;28;20045;-66
2022/09/12 07:03:51;;;;;;;8.25;5.93;;;;;;;;;;5031712;28;20108;-66
2022/09/12 07:06:19;;;;;;;8.07;5.30;;;;;;;;;;5050478;28;20411;-67
2022/09/12 07:08:46;;;;;;;10.77;5.78;;;;;;;;;;5054859;28;20025;-67
2022/09/12 07:11:21;;;;;;;7.80;5.55;;;;;;;;;;5054887;28;20029;-66
2022/09/12 07:13:52;;;;;;;8.98;5.15;;;;;;;;;;5054986;28;20098;-66
2022/09/12 07:16:18;;;;;;;7.63;4.70;;;;;;;;;;5054916;28;20021;-67
2022/09/12 07:18:45;;;;;;;7.25;4.43;;;;;;;;;;5054886;28;20367;-66
2022/09/12 07:21:12;;;;;;;10.95;5.90;;;;;;;;;;5053617;28;20044;-66
2022/09/12 07:23:38;;;;;;;8.55;5.07;;;;;;;;;;5054548;28;20027;-66
2022/09/12 07:26:04;;;;;;;8.95;4.80;;;;;;;;;;5047755;28;20017;-66
2022/09/12 07:28:32;;;;;;;10.13;5.20;;;;;;;;;;5034765;28;20021;-66
2022/09/12 07:31:05;;;;;;;7.47;4.63;;;;;;;;;;5034754;28;20464;-67
2022/09/12 07:33:30;;;;;;;6.25;4.35;;;;;;;;;;5034678;28;20040;-66
2022/09/12 07:36:04;;;;;;;5.63;4.30;;;;;;;;;;5027073;28;20100;-67
2022/09/12 07:38:30;;;;;;;8.82;4.53;;;;;;;;;;5021305;28;20417;-66
2022/09/12 07:40:56;;;;;;;6.57;4.40;;;;;;;;;;5033885;28;20021;-66
2022/09/12 07:43:22;;;;;;;6.22;4.88;;;;;;;;;;5034487;28;20029;-67
2022/09/12 07:45:54;;;;;;;7.90;4.13;;;;;;;;;;5033926;28;20084;-67
2022/09/12 07:48:19;;;;;;;7.50;4.03;;;;;;;;;;5034210;28;20022;-66
2022/09/12 07:50:45;;;;;;;5.68;4.10;;;;;;;;;;5034474;28;20474;-68
2022/09/12 07:53:10;;;;;;;5.60;4.03;;;;;;;;;;5034129;28;20393;-67
2022/09/12 07:55:36;;;;;;;4.57;3.50;;;;;;;;;;5034151;28;20022;-66
2022/09/12 07:58:02;;;;;;;5.78;3.30;;;;;;;;;;5034093;28;20049;-67
2022/09/12 08:00:34;;;;;;;4.15;3.03;;;;;;;;;;5031023;28;20033;-68
2022/09/12 08:03:01;;;;;;;4.65;3.58;;;;;;;;;;5022356;28;20017;-67
2022/09/12 08:05:27;;;;;;;6.28;3.00;;;;;;;;;;5019319;28;20074;-66
2022/09/12 08:07:52;;;;;;;6.25;3.00;;;;;;;;;;5013573;28;20433;-66
2022/09/12 08:10:18;;;;;;;8.45;3.33;;;;;;;;;;5014072;28;20032;-67
2022/09/12 08:12:43;;;;;;;8.80;3.50;;;;;;;;;;5014297;28;20064;-67
2022/09/12 08:15:09;;;;;;;9.57;3.40;;;;;;;;;;5013869;28;20028;-66
2022/09/12 08:17:34;;;;;;;8.18;3.85;;;;;;;;;;5013774;28;20033;-66
2022/09/12 08:20:00;;;;;;;5.70;2.97;;;;;;;;;;5014150;28;20026;-66
2022/09/12 08:22:26;;;;;;;4.57;2.92;;;;;;;;;;5013709;28;20033;-66
2022/09/12 08:24:52;;;;;;;6.85;2.83;;;;;;;;;;5017662;28;20028;-66
2022/09/12 08:27:17;;;;;;;9.98;3.38;;;;;;;;;;5033419;28;20086;-66
2022/09/12 08:29:43;;;;;;;3.88;2.42;;;;;;;;;;5032220;28;20108;-66
2022/09/12 08:32:09;;;;;;;3.30;2.40;;;;;;;;;;5033553;28;20029;-66
2022/09/12 08:34:35;;;;;;;2.88;2.10;;;;;;;;;;5033432;28;20033;-66
2022/09/12 08:37:00;;;;;;;4.30;1.88;;;;;;;;;;5033328;28;20028;-66
2022/09/12 08:39:26;;;;;;;4.80;2.00;;;;;;;;;;5033255;28;20475;-66
2022/09/12 08:42:01;;;;;;;6.20;2.33;;;;;;;;;;5033403;28;20033;-66
2022/09/12 08:44:53;;;;;;;7.18;2.30;;;;;;;;;;5033208;28;20546;-66
2022/09/12 08:47:35;;;;;;;3.53;2.42;;;;;;;;;;5033228;28;20022;-67
2022/09/12 08:50:10;;;;;;;3.35;2.13;;;;;;;;;;5024787;28;20072;-66
2022/09/12 08:53:12;;;;;;;3.10;2.38;;;;;;;;;;5018158;28;20026;-66
2022/09/12 08:55:50;;;;;;;3.15;1.90;;;;;;;;;;5013588;28;20420;-66
2022/09/12 08:58:20;;;;;;;2.53;1.90;;;;;;;;;;5013316;28;20042;-67
2022/09/12 09:00:49;;;;;;;4.43;1.92;;;;;;;;;;5013592;28;20072;-66
2022/09/12 09:03:15;;;;;;;;;;;;;;;;;;5013813;28;20051;-66
2022/09/12 09:05:44;;;;;;;5.60;1.75;;;;;;;;;;5013070;28;20020;-66
2022/09/12 09:08:16;;;;;;;4.70;1.60;;;;;;;;;;5013409;28;20388;-66
2022/09/12 09:10:57;;;;;;;2.40;1.50;;;;;;;;;;5013033;28;20038;-67
2022/09/12 09:16:55;;;;;;;5.82;1.90;;;;;;;;;;5013120;28;20036;-66
2022/09/12 09:19:36;;;;;;;3.97;2.05;;;;;;;;;;5012868;28;20156;-67
2022/09/12 09:22:21;;;;;;;5.65;1.73;;;;;;;;;;5013229;28;20036;-65
2022/09/12 09:24:59;;;;;;;7.10;2.42;;;;;;;;;;5013442;28;20022;-66
2022/09/12 09:27:40;;;;;;;5.80;2.63;;;;;;;;;;5030471;28;20028;-66
2022/09/12 09:30:14;;;;;;;4.50;2.28;;;;;;;;;;5032580;28;20033;-66
2022/09/12 09:32:41;;;;;;;2.22;1.77;;;;;;;;;;5032712;28;20033;-66
2022/09/12 09:35:17;;;;;;;2.40;1.70;;;;;;;;;;5031325;28;20032;-66
2022/09/12 09:38:21;;;;;;;5.88;1.83;;;;;;;;;;5030863;28;20469;-66
2022/09/12 09:41:08;;;;;;;4.82;1.60;;;;;;;;;;5032416;28;20029;-68
2022/09/12 09:43:37;;;;;;;2.88;1.60;;;;;;;;;;5031051;28;20029;-66
2022/09/12 09:46:03;;;;;;;3.13;1.83;;;;;;;;;;5032340;28;20382;-67
2022/09/12 09:48:35;;;;;;;5.72;1.70;;;;;;;;;;5032193;28;20017;-66
2022/09/12 09:51:05;;;;;;;3.42;1.50;;;;;;;;;;5032247;28;20025;-67
2022/09/12 09:53:40;;;;;;;3.80;2.00;;;;;;;;;;5032218;28;20053;-66
2022/09/12 09:56:25;;;;;;;3.72;2.10;;;;;;;;;;5031955;28;20490;-68
2022/09/12 09:58:51;;;;;;;2.40;1.58;;;;;;;;;;5031858;28;20132;-66
2022/09/12 10:01:17;;;;;;;4.80;1.67;;;;;;;;;;5032310;28;20423;-68
2022/09/12 10:03:51;;;;;;;3.75;2.38;;;;;;;;;;5031332;28;20121;-68
2022/09/12 10:06:20;;;;;;;4.63;2.15;;;;;;;;;;5031858;28;20430;-66
2022/09/12 10:08:47;;;;;;;5.20;2.10;;;;;;;;;;5032084;28;20030;-66
2022/09/12 10:11:15;;;;;;;8.18;3.22;;;;;;;;;;5031998;28;20056;-66
2022/09/12 10:13:41;;;;;;;5.38;2.90;;;;;;;;;;5032034;28;20435;-66
2022/09/12 10:16:18;;;;;;;4.53;3.22;;;;;;;;;;5031774;28;20088;-66
2022/09/12 10:18:44;;;;;;;3.72;3.00;;;;;;;;;;5031863;28;20108;-66
2022/09/12 10:21:21;;;;;;;6.85;3.45;;;;;;;;;;5032114;28;20113;-67
2022/09/12 10:23:52;;;;;;;5.90;2.92;;;;;;;;;;5031742;28;20355;-66
2022/09/12 10:26:19;;;;;;;4.50;2.70;;;;;;;;;;5031911;28;20018;-66
2022/09/12 10:28:50;;;;;;;5.22;2.45;;;;;;;;;;5031668;28;20104;-68
2022/09/12 10:31:27;;;;;;;6.75;2.28;;;;;;;;;;5031801;28;20095;-67
2022/09/12 10:33:56;;;;;;;4.38;2.50;;;;;;;;;;5029918;28;20033;-66
2022/09/12 10:36:23;;;;;;;2.80;2.30;;;;;;;;;;5031838;28;20124;-67
2022/09/12 10:38:51;;;;;;;2.97;2.28;;;;;;;;;;5031666;28;20029;-67
2022/09/12 10:41:17;;;;;;;4.47;2.40;;;;;;;;;;5031897;28;20050;-67
2022/09/12 10:43:43;;;;;;;7.55;2.10;;;;;;;;;;5031677;28;20410;-67
2022/09/12 10:46:15;;;;;;;8.27;2.40;;;;;;;;;;5031619;28;20029;-67
2022/09/12 10:48:46;;;;;;;2.30;1.70;;;;;;;;;;5031442;28;20501;-67
2022/09/12 10:51:23;;;;;;;5.30;1.55;;;;;;;;;;5031768;28;20037;-67
2022/09/12 10:53:51;;;;;;;1.98;1.50;;;;;;;;;;5031781;28;20026;-67
2022/09/12 10:56:22;;;;;;;2.80;1.50;;;;;;;;;;5031758;28;20029;-66
2022/09/12 10:59:05;;;;;;;2.13;1.45;;;;;;;;;;5046899;28;20056;-68
2022/09/12 11:01:57;;;;;;;2.38;1.40;;;;;;;;;;5030206;28;20394;-67
2022/09/12 11:04:57;;;;;;;8.43;2.00;;;;;;;;;;5031644;28;20132;-67
2022/09/12 11:07:42;;;;;;;3.60;1.70;;;;;;;;;;5030341;28;20033;-67
2022/09/12 11:10:45;;;;;;;5.13;1.73;;;;;;;;;;5025728;28;20128;-66
2022/09/12 11:13:32;;;;;;;2.70;1.70;;;;;;;;;;5031655;28;20037;-67
2022/09/12 11:16:32;;;;;;;3.80;1.98;;;;;;;;;;5032581;28;20029;-67
2022/09/12 11:19:11;;;;;;;2.78;1.60;;;;;;;;;;5034668;28;20065;-67
2022/09/12 11:21:54;;;;;;;2.55;1.60;;;;;;;;;;5020297;28;20486;-67
2022/09/12 11:24:52;;;;;;;4.50;1.63;;;;;;;;;;5015201;28;20026;-67
2022/09/12 11:27:39;;;;;;;3.42;2.03;;;;;;;;;;5027551;28;20071;-67
2022/09/12 11:30:13;;;;;;;6.07;2.53;;;;;;;;;;5034553;28;20030;-67
2022/09/12 11:33:08;;;;;;;5.20;2.72;;;;;;;;;;5034820;28;20029;-67
2022/09/12 11:35:44;;;;;;;3.42;1.90;;;;;;;;;;5034701;28;20107;-67
2022/09/12 11:38:18;;;;;;;3.30;1.75;;;;;;;;;;5034487;28;20108;-67
2022/09/12 11:41:01;;;;;;;4.30;1.88;;;;;;;;;;5034786;28;20021;-68
2022/09/12 11:43:45;;;;;;;4.85;2.50;;;;;;;;;;5034673;28;20107;-66
2022/09/12 11:46:32;;;;;;;5.50;2.55;;;;;;;;;;5034383;28;20049;-67
2022/09/12 11:49:12;;;;;;;2.33;1.50;;;;;;;;;;5034347;28;20109;-67
2022/09/12 11:51:41;;;;;;;;;;;;;;;;;;5034609;28;20112;-70
2022/09/12 11:54:27;;;;;;;4.05;1.45;;;;;;;;;;5034396;28;19941;-67
2022/09/12 11:57:11;;;;;;;2.90;1.70;;;;;;;;;;5034436;28;20487;-67
2022/09/12 11:59:43;;;;;;;6.25;1.70;;;;;;;;;;5032443;28;20136;-67
2022/09/12 12:02:20;;;;;;;3.38;1.55;;;;;;;;;;5034309;28;20160;-67
2022/09/12 12:05:13;;;;;;;1.92;1.50;;;;;;;;;;5034244;28;20029;-66
2022/09/12 12:07:49;;;;;;;3.33;1.60;;;;;;;;;;5034067;28;20029;-67
2022/09/12 12:10:36;;;;;;;2.20;1.58;;;;;;;;;;5034066;28;20119;-67
2022/09/12 12:13:28;;;;;;;6.13;1.63;;;;;;;;;;5033747;28;20029;-67
2022/09/12 12:15:59;;;;;;;2.55;1.52;;;;;;;;;;5033843;28;20113;-71
2022/09/12 12:18:30;;;;;;;5.10;1.67;;;;;;;;;;5033503;28;20116;-67
2022/09/12 12:21:33;;;;;;;4.80;1.50;;;;;;;;;;5033900;28;20053;-67
2022/09/12 12:24:06;;;;;;;2.80;1.20;;;;;;;;;;4972876;28;20045;-68
2022/09/12 12:26:40;;;;;;;2.38;1.27;;;;;;;;;;4962161;28;20433;-66
2022/09/12 12:29:08;;;;;;;7.13;4.68;;;;;;;;;;4952828;29;20028;-67
2022/09/12 12:32:02;;;;;;;5.15;1.55;;;;;;;;;;4953359;29;20445;-68
2022/09/12 12:34:40;;;;;;;4.90;1.30;;;;;;;;;;4953377;29;20050;-68
2022/09/12 12:37:18;;;;;;;2.25;1.10;;;;;;;;;;4953173;29;20098;-68
2022/09/12 12:39:49;;;;;;;2.47;1.40;;;;;;;;;;4969674;28;20046;-67
2022/09/12 12:42:33;;;;;;;3.13;1.30;;;;;;;;;;4972240;28;20031;-67
2022/09/12 12:45:08;;;;;;;2.13;1.48;;;;;;;;;;4956397;28;20022;-67
2022/09/12 12:48:05;;;;;;;1.00;0.90;;;;;;;;;;4972259;28;20039;-67
2022/09/12 12:50:31;;;;;;;4.88;1.23;;;;;;;;;;4953558;28;20067;-68
2022/09/12 12:53:00;;;;;;;3.50;1.20;;;;;;;;;;4972226;28;20511;-68
2022/09/12 12:55:44;;;;;;;5.07;1.60;;;;;;;;;;4972401;28;20369;-67
2022/09/12 12:58:39;;;;;;;4.63;2.17;;;;;;;;;;4971928;28;20057;-67
2022/09/12 13:01:10;;;;;;;3.42;1.15;;;;;;;;;;5013419;28;20040;-67
2022/09/12 13:03:37;;;;;;;2.17;1.00;;;;;;;;;;5012313;28;20030;-67
2022/09/12 13:06:06;;;;;;;2.88;0.93;;;;;;;;;;5013402;28;20095;-67
2022/09/12 13:08:35;;;;;;;2.83;1.27;;;;;;;;;;5013250;28;20108;-68
2022/09/12 13:11:09;;;;;;;2.10;0.90;;;;;;;;;;5013080;28;20046;-68
2022/09/12 13:13:41;;;;;;;5.47;1.15;;;;;;;;;;5013029;28;20049;-68
2022/09/12 13:16:09;;;;;;;2.63;1.08;;;;;;;;;;5012936;28;20026;-67
2022/09/12 13:18:47;;;;;;;3.33;1.20;;;;;;;;;;5013064;28;20026;-67
2022/09/12 13:21:20;;;;;;;1.45;1.00;;;;;;;;;;5011691;28;20025;-67
2022/09/12 13:24:14;;;;;;;2.38;1.00;;;;;;;;;;5012590;28;20033;-67
2022/09/12 13:26:42;;;;;;;2.92;1.10;;;;;;;;;;5018769;28;20033;-67
2022/09/12 13:29:18;;;;;;;0.93;0.80;;;;;;;;;;5032570;28;20033;-68
2022/09/12 13:31:51;;;;;;;1.50;0.90;;;;;;;;;;5032366;28;20065;-67
2022/09/12 13:34:28;;;;;;;3.78;0.98;;;;;;;;;;5032661;28;20030;-67
2022/09/12 13:37:12;;;;;;;1.60;1.10;;;;;;;;;;5032527;28;20026;-68
2022/09/12 13:39:56;;;;;;;1.63;0.90;;;;;;;;;;5031581;28;20037;-67
2022/09/12 13:42:39;;;;;;;9.57;1.92;;;;;;;;;;5032405;28;20029;-66
2022/09/12 13:45:17;;;;;;;4.05;0.80;;;;;;;;;;5032551;28;20022;-67
2022/09/12 13:47:44;;;;;;;1.77;1.00;;;;;;;;;;5032023;28;20056;-67
2022/09/12 13:50:39;;;;;;;1.52;0.80;;;;;;;;;;5032184;28;20022;-68
2022/09/12 13:53:11;;;;;;;1.00;0.75;;;;;;;;;;5030992;28;20405;-67
2022/09/12 13:55:40;;;;;;;2.22;0.90;;;;;;;;;;5032095;28;20032;-67
2022/09/12 13:58:15;;;;;;;3.25;0.77;;;;;;;;;;5032080;28;20060;-67
2022/09/12 14:00:41;;;;;;;5.72;1.27;;;;;;;;;;5032291;28;20085;-67
2022/09/12 14:06:12;;;;;;;1.25;0.90;;;;;;;;;;5032513;28;20036;-67
2022/09/12 14:08:40;;;;;;;2.97;0.85;;;;;;;;;;5032302;28;20104;-67
2022/09/12 14:11:21;;;;;;;1.60;0.82;;;;;;;;;;5031929;28;20030;-68
2022/09/12 14:13:47;;;;;;;7.13;1.13;;;;;;;;;;5030827;28;20100;-67
2022/09/12 14:16:14;;;;;;;1.60;0.80;;;;;;;;;;5031703;28;20426;-67
2022/09/12 14:18:43;;;;;;;1.55;0.88;;;;;;;;;;5032009;28;20032;-70
2022/09/12 14:21:20;;;;;;;5.85;1.08;;;;;;;;;;5032020;28;20040;-67
2022/09/12 14:23:47;;;;;;;4.22;0.90;;;;;;;;;;5031670;28;20409;-67
2022/09/12 14:26:16;;;;;;;1.63;0.98;;;;;;;;;;5031913;28;20387;-67
2022/09/12 14:28:46;;;;;;;1.42;0.88;;;;;;;;;;5032061;28;20383;-67
2022/09/12 14:31:11;;;;;;;1.70;0.90;;;;;;;;;;5031816;28;20498;-69
2022/09/12 14:34:15;;;;;;;3.70;0.90;;;;;;;;;;5031948;28;20033;-67
2022/09/12 14:36:48;;;;;;;1.63;0.88;;;;;;;;;;5032004;28;20021;-67
2022/09/12 14:39:31;;;;;;;5.05;1.10;;;;;;;;;;5031187;28;20077;-67
2022/09/12 14:42:16;;;;;;;2.40;0.90;;;;;;;;;;5031736;28;20471;-67
2022/09/12 14:45:00;;;;;;;2.85;1.05;;;;;;;;;;5031779;28;20029;-67
2022/09/12 14:47:34;;;;;;;4.80;1.50;;;;;;;;;;5037338;28;20056;-68
2022/09/12 14:49:59;;;;;;;1.65;0.77;;;;;;;;;;5033086;28;20141;-67
2022/09/12 14:52:27;;;;;;;2.08;0.95;;;;;;;;;;5035278;28;20136;-68
2022/09/12 14:55:00;;;;;;;3.70;0.80;;;;;;;;;;5035641;28;20033;-67
2022/09/12 14:57:39;;;;;;;2.72;0.80;;;;;;;;;;5035402;28;20032;-67
2022/09/12 15:00:19;;;;;;;1.15;0.70;;;;;;;;;;5035382;28;20502;-67
2022/09/12 15:02:46;;;;;;;0.70;0.70;;;;;;;;;;5035386;28;20056;-67
2022/09/12 15:05:11;;;;;;;2.40;0.88;;;;;;;;;;5035354;28;20189;-67
2022/09/12 15:07:55;;;;;;;3.47;1.08;;;;;;;;;;5033748;28;20032;-67
2022/09/12 15:10:34;;;;;;;1.27;0.90;;;;;;;;;;5035195;28;20382;-66
2022/09/12 15:13:09;;;;;;;4.07;1.08;;;;;;;;;;5035225;28;20029;-67
2022/09/12 15:15:36;;;;;;;3.80;0.80;;;;;;;;;;5034928;28;20018;-67
2022/09/12 15:18:01;;;;;;;4.93;1.00;;;;;;;;;;5035095;28;20029;-67
2022/09/12 15:20:27;;;;;;;1.05;0.80;;;;;;;;;;5034777;28;20546;-67